sensor_id;sensor_type;location;lat;lon;timestamp;P1;durP1;ratioP1;P2;durP2;ratioP2
17595;SDS011;8916;47.086;15.920;2023-02-22T00:01:13;20.38;;;9.80;;
17595;SDS011;8916;47.086;15.920;2023-02-22T00:03:54;21.52;;;10.52;;
17595;SDS011;8916;47.086;15.920;2023-02-22T00:06:27;20.27;;;10.25;;
17595;SDS011;8916;47.086;15.920;2023-02-22T00:08:57;24.65;;;9.90;;
17595;SDS011;8916;47.086;15.920;2023-02-22T00:11:31;19.48;;;8.90;;
17595;SDS011;8916;47.086;15.920;2023-02-22T00:14:01;20.25;;;9.52;;
17595;SDS011;8916;47.086;15.920;2023-02-22T00:16:30;23.20;;;10.18;;
17595;SDS011;8916;47.086;15.920;2023-02-22T00:19:00;21.85;;;8.65;;
17595;SDS011;8916;47.086;15.920;2023-02-22T00:21:33;19.60;;;9.27;;
17595;SDS011;8916;47.086;15.920;2023-02-22T00:24:03;20.85;;;9.27;;
17595;SDS011;8916;47.086;15.920;2023-02-22T00:26:50;24.35;;;10.23;;
17595;SDS011;8916;47.086;15.920;2023-02-22T00:29:22;17.45;;;9.80;;
17595;SDS011;8916;47.086;15.920;2023-02-22T00:31:52;24.75;;;9.57;;
17595;SDS011;8916;47.086;15.920;2023-02-22T00:34:21;22.35;;;10.73;;
17595;SDS011;8916;47.086;15.920;2023-02-22T00:36:52;24.50;;;10.73;;
17595;SDS011;8916;47.086;15.920;2023-02-22T00:39:21;20.52;;;9.60;;
17595;SDS011;8916;47.086;15.920;2023-02-22T00:41:50;19.98;;;9.43;;
17595;SDS011;8916;47.086;15.920;2023-02-22T00:44:19;24.88;;;9.70;;
17595;SDS011;8916;47.086;15.920;2023-02-22T00:46:48;20.13;;;8.75;;
17595;SDS011;8916;47.086;15.920;2023-02-22T00:49:17;23.75;;;11.23;;
17595;SDS011;8916;47.086;15.920;2023-02-22T00:51:49;24.02;;;11.35;;
17595;SDS011;8916;47.086;15.920;2023-02-22T00:54:19;25.50;;;11.23;;
17595;SDS011;8916;47.086;15.920;2023-02-22T00:56:49;20.15;;;9.68;;
17595;SDS011;8916;47.086;15.920;2023-02-22T00:59:18;19.63;;;8.73;;
17595;SDS011;8916;47.086;15.920;2023-02-22T01:01:47;28.83;;;10.98;;
17595;SDS011;8916;47.086;15.920;2023-02-22T01:04:17;23.80;;;10.70;;
17595;SDS011;8916;47.086;15.920;2023-02-22T01:06:47;24.80;;;10.57;;
17595;SDS011;8916;47.086;15.920;2023-02-22T01:09:16;21.33;;;10.23;;
17595;SDS011;8916;47.086;15.920;2023-02-22T01:11:49;23.63;;;10.65;;
17595;SDS011;8916;47.086;15.920;2023-02-22T01:14:24;11.68;;;6.47;;
17595;SDS011;8916;47.086;15.920;2023-02-22T01:16:54;17.83;;;9.00;;
17595;SDS011;8916;47.086;15.920;2023-02-22T01:19:24;19.88;;;9.23;;
17595;SDS011;8916;47.086;15.920;2023-02-22T01:21:54;19.48;;;9.50;;
17595;SDS011;8916;47.086;15.920;2023-02-22T01:24:23;15.40;;;7.43;;
17595;SDS011;8916;47.086;15.920;2023-02-22T01:26:55;19.55;;;7.80;;
17595;SDS011;8916;47.086;15.920;2023-02-22T01:29:24;15.48;;;7.60;;
17595;SDS011;8916;47.086;15.920;2023-02-22T01:31:54;19.73;;;8.70;;
17595;SDS011;8916;47.086;15.920;2023-02-22T01:34:24;20.73;;;8.05;;
17595;SDS011;8916;47.086;15.920;2023-02-22T01:36:53;16.02;;;8.13;;
17595;SDS011;8916;47.086;15.920;2023-02-22T01:39:22;15.65;;;7.40;;
17595;SDS011;8916;47.086;15.920;2023-02-22T01:41:52;18.33;;;8.48;;
17595;SDS011;8916;47.086;15.920;2023-02-22T01:44:26;17.63;;;8.02;;
17595;SDS011;8916;47.086;15.920;2023-02-22T01:46:58;18.02;;;9.15;;
17595;SDS011;8916;47.086;15.920;2023-02-22T01:49:30;17.10;;;8.10;;
17595;SDS011;8916;47.086;15.920;2023-02-22T01:52:06;17.88;;;7.90;;
17595;SDS011;8916;47.086;15.920;2023-02-22T01:54:40;17.13;;;8.10;;
17595;SDS011;8916;47.086;15.920;2023-02-22T01:57:13;16.52;;;8.00;;
17595;SDS011;8916;47.086;15.920;2023-02-22T01:59:51;15.93;;;7.82;;
17595;SDS011;8916;47.086;15.920;2023-02-22T02:02:25;14.90;;;7.60;;
17595;SDS011;8916;47.086;15.920;2023-02-22T02:04:55;15.02;;;7.35;;
17595;SDS011;8916;47.086;15.920;2023-02-22T02:07:25;19.60;;;7.32;;
17595;SDS011;8916;47.086;15.920;2023-02-22T02:09:56;16.27;;;8.13;;
17595;SDS011;8916;47.086;15.920;2023-02-22T02:12:28;16.10;;;7.93;;
17595;SDS011;8916;47.086;15.920;2023-02-22T02:15:20;14.98;;;8.10;;
17595;SDS011;8916;47.086;15.920;2023-02-22T02:17:52;18.27;;;7.50;;
17595;SDS011;8916;47.086;15.920;2023-02-22T02:20:26;16.98;;;7.60;;
17595;SDS011;8916;47.086;15.920;2023-02-22T02:23:07;15.38;;;7.40;;
17595;SDS011;8916;47.086;15.920;2023-02-22T02:26:13;13.98;;;7.40;;
17595;SDS011;8916;47.086;15.920;2023-02-22T02:32:22;13.05;;;6.90;;
17595;SDS011;8916;47.086;15.920;2023-02-22T02:35:03;12.52;;;6.57;;
17595;SDS011;8916;47.086;15.920;2023-02-22T02:37:42;13.00;;;6.67;;
17595;SDS011;8916;47.086;15.920;2023-02-22T02:40:19;17.70;;;7.45;;
17595;SDS011;8916;47.086;15.920;2023-02-22T02:42:55;15.05;;;7.22;;
17595;SDS011;8916;47.086;15.920;2023-02-22T02:45:29;13.32;;;6.85;;
17595;SDS011;8916;47.086;15.920;2023-02-22T02:48:05;13.35;;;7.05;;
17595;SDS011;8916;47.086;15.920;2023-02-22T02:50:41;13.32;;;7.03;;
17595;SDS011;8916;47.086;15.920;2023-02-22T02:53:17;13.82;;;6.72;;
17595;SDS011;8916;47.086;15.920;2023-02-22T02:55:49;12.05;;;6.90;;
17595;SDS011;8916;47.086;15.920;2023-02-22T02:58:19;15.45;;;6.70;;
17595;SDS011;8916;47.086;15.920;2023-02-22T03:00:53;15.38;;;6.10;;
17595;SDS011;8916;47.086;15.920;2023-02-22T03:03:31;15.02;;;7.03;;
17595;SDS011;8916;47.086;15.920;2023-02-22T03:06:35;15.52;;;7.10;;
17595;SDS011;8916;47.086;15.920;2023-02-22T03:09:37;13.85;;;7.05;;
17595;SDS011;8916;47.086;15.920;2023-02-22T03:12:24;15.40;;;7.13;;
17595;SDS011;8916;47.086;15.920;2023-02-22T03:15:10;15.60;;;7.03;;
17595;SDS011;8916;47.086;15.920;2023-02-22T03:17:51;15.13;;;7.32;;
17595;SDS011;8916;47.086;15.920;2023-02-22T03:20:31;13.27;;;7.05;;
17595;SDS011;8916;47.086;15.920;2023-02-22T03:23:12;15.18;;;6.90;;
17595;SDS011;8916;47.086;15.920;2023-02-22T03:25:52;13.80;;;6.93;;
17595;SDS011;8916;47.086;15.920;2023-02-22T03:28:29;15.68;;;7.25;;
17595;SDS011;8916;47.086;15.920;2023-02-22T03:31:02;19.48;;;6.78;;
17595;SDS011;8916;47.086;15.920;2023-02-22T03:36:12;16.52;;;7.45;;
17595;SDS011;8916;47.086;15.920;2023-02-22T03:38:46;16.35;;;7.30;;
17595;SDS011;8916;47.086;15.920;2023-02-22T03:41:17;19.67;;;6.93;;
17595;SDS011;8916;47.086;15.920;2023-02-22T03:43:52;13.23;;;7.15;;
17595;SDS011;8916;47.086;15.920;2023-02-22T03:46:26;16.55;;;6.82;;
17595;SDS011;8916;47.086;15.920;2023-02-22T03:48:57;15.43;;;6.75;;
17595;SDS011;8916;47.086;15.920;2023-02-22T03:51:36;16.27;;;7.30;;
17595;SDS011;8916;47.086;15.920;2023-02-22T03:54:07;13.32;;;7.32;;
17595;SDS011;8916;47.086;15.920;2023-02-22T03:56:47;14.07;;;7.40;;
17595;SDS011;8916;47.086;15.920;2023-02-22T03:59:21;11.43;;;5.30;;
17595;SDS011;8916;47.086;15.920;2023-02-22T04:01:54;12.98;;;6.82;;
17595;SDS011;8916;47.086;15.920;2023-02-22T04:04:24;14.45;;;7.35;;
17595;SDS011;8916;47.086;15.920;2023-02-22T04:06:56;15.65;;;7.50;;
17595;SDS011;8916;47.086;15.920;2023-02-22T04:09:26;14.63;;;7.20;;
17595;SDS011;8916;47.086;15.920;2023-02-22T04:11:56;15.25;;;6.70;;
17595;SDS011;8916;47.086;15.920;2023-02-22T04:14:26;20.92;;;7.30;;
17595;SDS011;8916;47.086;15.920;2023-02-22T04:16:57;12.85;;;6.55;;
17595;SDS011;8916;47.086;15.920;2023-02-22T04:19:26;15.30;;;6.97;;
17595;SDS011;8916;47.086;15.920;2023-02-22T04:21:57;14.43;;;7.15;;
17595;SDS011;8916;47.086;15.920;2023-02-22T04:24:26;13.60;;;7.15;;
17595;SDS011;8916;47.086;15.920;2023-02-22T04:26:57;12.50;;;6.20;;
17595;SDS011;8916;47.086;15.920;2023-02-22T04:29:27;15.43;;;6.35;;
17595;SDS011;8916;47.086;15.920;2023-02-22T04:31:57;13.88;;;5.95;;
17595;SDS011;8916;47.086;15.920;2023-02-22T04:34:26;11.88;;;5.88;;
17595;SDS011;8916;47.086;15.920;2023-02-22T04:36:57;16.98;;;5.85;;
17595;SDS011;8916;47.086;15.920;2023-02-22T04:39:26;13.05;;;5.55;;
17595;SDS011;8916;47.086;15.920;2023-02-22T04:41:55;11.02;;;5.82;;
17595;SDS011;8916;47.086;15.920;2023-02-22T04:44:25;10.80;;;5.43;;
17595;SDS011;8916;47.086;15.920;2023-02-22T04:46:55;10.52;;;5.68;;
17595;SDS011;8916;47.086;15.920;2023-02-22T04:49:25;12.05;;;6.63;;
17595;SDS011;8916;47.086;15.920;2023-02-22T04:51:57;13.15;;;6.80;;
17595;SDS011;8916;47.086;15.920;2023-02-22T04:54:33;13.00;;;6.22;;
17595;SDS011;8916;47.086;15.920;2023-02-22T04:57:02;15.23;;;6.22;;
17595;SDS011;8916;47.086;15.920;2023-02-22T04:59:33;13.82;;;5.90;;
17595;SDS011;8916;47.086;15.920;2023-02-22T05:02:02;13.77;;;5.95;;
17595;SDS011;8916;47.086;15.920;2023-02-22T05:04:32;16.38;;;6.55;;
17595;SDS011;8916;47.086;15.920;2023-02-22T05:07:03;14.88;;;6.80;;
17595;SDS011;8916;47.086;15.920;2023-02-22T05:09:33;17.33;;;6.43;;
17595;SDS011;8916;47.086;15.920;2023-02-22T05:12:03;13.38;;;6.18;;
17595;SDS011;8916;47.086;15.920;2023-02-22T05:14:32;14.60;;;6.22;;
17595;SDS011;8916;47.086;15.920;2023-02-22T05:17:01;12.63;;;6.05;;
17595;SDS011;8916;47.086;15.920;2023-02-22T05:19:31;12.60;;;6.25;;
17595;SDS011;8916;47.086;15.920;2023-02-22T05:22:01;9.77;;;5.72;;
17595;SDS011;8916;47.086;15.920;2023-02-22T05:24:33;12.45;;;6.43;;
17595;SDS011;8916;47.086;15.920;2023-02-22T05:27:02;14.90;;;6.60;;
17595;SDS011;8916;47.086;15.920;2023-02-22T05:29:31;14.02;;;6.25;;
17595;SDS011;8916;47.086;15.920;2023-02-22T05:32:01;17.02;;;7.20;;
17595;SDS011;8916;47.086;15.920;2023-02-22T05:34:30;17.02;;;7.13;;
17595;SDS011;8916;47.086;15.920;2023-02-22T05:36:59;14.80;;;7.63;;
17595;SDS011;8916;47.086;15.920;2023-02-22T05:39:29;16.17;;;6.88;;
17595;SDS011;8916;47.086;15.920;2023-02-22T05:42:00;19.13;;;7.80;;
17595;SDS011;8916;47.086;15.920;2023-02-22T05:44:30;13.18;;;7.05;;
17595;SDS011;8916;47.086;15.920;2023-02-22T05:46:59;19.30;;;8.50;;
17595;SDS011;8916;47.086;15.920;2023-02-22T05:49:28;14.15;;;8.07;;
17595;SDS011;8916;47.086;15.920;2023-02-22T05:51:57;18.75;;;8.38;;
17595;SDS011;8916;47.086;15.920;2023-02-22T05:54:26;16.15;;;8.45;;
17595;SDS011;8916;47.086;15.920;2023-02-22T05:56:56;25.08;;;10.27;;
17595;SDS011;8916;47.086;15.920;2023-02-22T05:59:26;17.13;;;8.55;;
17595;SDS011;8916;47.086;15.920;2023-02-22T06:01:56;16.92;;;7.75;;
17595;SDS011;8916;47.086;15.920;2023-02-22T06:04:25;15.88;;;8.23;;
17595;SDS011;8916;47.086;15.920;2023-02-22T06:06:55;14.82;;;7.93;;
17595;SDS011;8916;47.086;15.920;2023-02-22T06:09:24;13.98;;;6.97;;
17595;SDS011;8916;47.086;15.920;2023-02-22T06:11:53;12.60;;;6.65;;
17595;SDS011;8916;47.086;15.920;2023-02-22T06:14:23;10.55;;;5.90;;
17595;SDS011;8916;47.086;15.920;2023-02-22T06:16:53;14.63;;;7.03;;
17595;SDS011;8916;47.086;15.920;2023-02-22T06:19:24;14.68;;;6.22;;
17595;SDS011;8916;47.086;15.920;2023-02-22T06:21:54;17.75;;;6.95;;
17595;SDS011;8916;47.086;15.920;2023-02-22T06:24:26;10.63;;;6.53;;
17595;SDS011;8916;47.086;15.920;2023-02-22T06:26:56;12.38;;;6.63;;
17595;SDS011;8916;47.086;15.920;2023-02-22T06:29:28;13.30;;;6.35;;
17595;SDS011;8916;47.086;15.920;2023-02-22T06:31:59;13.23;;;6.28;;
17595;SDS011;8916;47.086;15.920;2023-02-22T06:34:28;11.07;;;6.28;;
17595;SDS011;8916;47.086;15.920;2023-02-22T06:36:57;18.33;;;6.70;;
17595;SDS011;8916;47.086;15.920;2023-02-22T06:39:27;16.55;;;6.90;;
17595;SDS011;8916;47.086;15.920;2023-02-22T06:41:56;16.85;;;6.68;;
17595;SDS011;8916;47.086;15.920;2023-02-22T06:44:27;12.18;;;6.32;;
17595;SDS011;8916;47.086;15.920;2023-02-22T06:46:56;11.65;;;6.25;;
17595;SDS011;8916;47.086;15.920;2023-02-22T06:49:27;13.23;;;6.47;;
17595;SDS011;8916;47.086;15.920;2023-02-22T06:51:56;13.90;;;5.50;;
17595;SDS011;8916;47.086;15.920;2023-02-22T06:54:25;13.82;;;6.20;;
17595;SDS011;8916;47.086;15.920;2023-02-22T06:56:55;12.32;;;5.85;;
17595;SDS011;8916;47.086;15.920;2023-02-22T06:59:24;11.60;;;5.47;;
17595;SDS011;8916;47.086;15.920;2023-02-22T07:01:54;13.98;;;6.88;;
17595;SDS011;8916;47.086;15.920;2023-02-22T07:04:25;15.70;;;5.97;;
17595;SDS011;8916;47.086;15.920;2023-02-22T07:06:54;17.55;;;6.30;;
17595;SDS011;8916;47.086;15.920;2023-02-22T07:09:23;11.50;;;6.05;;
17595;SDS011;8916;47.086;15.920;2023-02-22T07:11:53;13.95;;;5.88;;
17595;SDS011;8916;47.086;15.920;2023-02-22T07:14:22;12.15;;;6.20;;
17595;SDS011;8916;47.086;15.920;2023-02-22T07:16:51;15.60;;;7.07;;
17595;SDS011;8916;47.086;15.920;2023-02-22T07:19:21;11.93;;;6.63;;
17595;SDS011;8916;47.086;15.920;2023-02-22T07:21:52;16.30;;;7.05;;
17595;SDS011;8916;47.086;15.920;2023-02-22T07:24:25;19.73;;;7.97;;
17595;SDS011;8916;47.086;15.920;2023-02-22T07:26:55;13.80;;;8.35;;
17595;SDS011;8916;47.086;15.920;2023-02-22T07:29:24;16.33;;;8.35;;
17595;SDS011;8916;47.086;15.920;2023-02-22T07:31:53;12.00;;;7.10;;
17595;SDS011;8916;47.086;15.920;2023-02-22T07:34:23;13.23;;;7.20;;
17595;SDS011;8916;47.086;15.920;2023-02-22T07:36:56;12.80;;;7.15;;
17595;SDS011;8916;47.086;15.920;2023-02-22T07:39:25;14.15;;;6.80;;
17595;SDS011;8916;47.086;15.920;2023-02-22T07:41:55;15.18;;;7.38;;
17595;SDS011;8916;47.086;15.920;2023-02-22T07:44:28;12.90;;;6.65;;
17595;SDS011;8916;47.086;15.920;2023-02-22T07:46:57;13.77;;;6.82;;
17595;SDS011;8916;47.086;15.920;2023-02-22T07:49:28;18.48;;;6.22;;
17595;SDS011;8916;47.086;15.920;2023-02-22T07:51:58;10.38;;;5.50;;
17595;SDS011;8916;47.086;15.920;2023-02-22T07:54:27;12.52;;;5.90;;
17595;SDS011;8916;47.086;15.920;2023-02-22T07:56:57;10.18;;;5.18;;
17595;SDS011;8916;47.086;15.920;2023-02-22T07:59:26;13.27;;;5.10;;
17595;SDS011;8916;47.086;15.920;2023-02-22T08:01:55;11.80;;;5.20;;
17595;SDS011;8916;47.086;15.920;2023-02-22T08:04:24;10.77;;;5.10;;
17595;SDS011;8916;47.086;15.920;2023-02-22T08:06:54;11.60;;;4.63;;
17595;SDS011;8916;47.086;15.920;2023-02-22T08:09:24;7.72;;;4.53;;
17595;SDS011;8916;47.086;15.920;2023-02-22T08:11:54;11.35;;;4.63;;
17595;SDS011;8916;47.086;15.920;2023-02-22T08:14:23;7.60;;;4.72;;
17595;SDS011;8916;47.086;15.920;2023-02-22T08:16:52;12.77;;;4.45;;
17595;SDS011;8916;47.086;15.920;2023-02-22T08:19:21;8.38;;;4.35;;
17595;SDS011;8916;47.086;15.920;2023-02-22T08:21:51;8.30;;;4.95;;
17595;SDS011;8916;47.086;15.920;2023-02-22T08:24:20;11.20;;;4.88;;
17595;SDS011;8916;47.086;15.920;2023-02-22T08:26:51;8.65;;;4.60;;
17595;SDS011;8916;47.086;15.920;2023-02-22T08:29:20;15.18;;;5.20;;
17595;SDS011;8916;47.086;15.920;2023-02-22T08:31:50;9.70;;;5.07;;
17595;SDS011;8916;47.086;15.920;2023-02-22T08:34:20;9.80;;;4.22;;
17595;SDS011;8916;47.086;15.920;2023-02-22T08:36:50;9.73;;;5.15;;
17595;SDS011;8916;47.086;15.920;2023-02-22T08:39:20;8.48;;;4.60;;
17595;SDS011;8916;47.086;15.920;2023-02-22T08:41:52;8.77;;;4.72;;
17595;SDS011;8916;47.086;15.920;2023-02-22T08:44:21;13.27;;;4.60;;
17595;SDS011;8916;47.086;15.920;2023-02-22T08:46:50;9.75;;;4.15;;
17595;SDS011;8916;47.086;15.920;2023-02-22T08:49:22;12.80;;;4.60;;
17595;SDS011;8916;47.086;15.920;2023-02-22T08:51:52;9.35;;;4.90;;
17595;SDS011;8916;47.086;15.920;2023-02-22T08:54:21;7.75;;;4.28;;
17595;SDS011;8916;47.086;15.920;2023-02-22T08:56:52;12.38;;;4.63;;
17595;SDS011;8916;47.086;15.920;2023-02-22T08:59:21;10.60;;;4.82;;
17595;SDS011;8916;47.086;15.920;2023-02-22T09:01:51;9.60;;;4.70;;
17595;SDS011;8916;47.086;15.920;2023-02-22T09:04:21;7.93;;;4.65;;
17595;SDS011;8916;47.086;15.920;2023-02-22T09:06:51;8.93;;;4.57;;
17595;SDS011;8916;47.086;15.920;2023-02-22T09:09:20;12.70;;;5.20;;
17595;SDS011;8916;47.086;15.920;2023-02-22T09:11:49;13.73;;;5.28;;
17595;SDS011;8916;47.086;15.920;2023-02-22T09:14:21;11.30;;;5.25;;
17595;SDS011;8916;47.086;15.920;2023-02-22T09:16:50;10.13;;;5.70;;
17595;SDS011;8916;47.086;15.920;2023-02-22T09:19:19;15.40;;;6.80;;
17595;SDS011;8916;47.086;15.920;2023-02-22T09:21:51;12.38;;;6.70;;
17595;SDS011;8916;47.086;15.920;2023-02-22T09:24:23;12.32;;;6.22;;
17595;SDS011;8916;47.086;15.920;2023-02-22T09:26:52;15.68;;;6.75;;
17595;SDS011;8916;47.086;15.920;2023-02-22T09:29:24;18.67;;;8.38;;
17595;SDS011;8916;47.086;15.920;2023-02-22T09:31:55;17.00;;;9.23;;
17595;SDS011;8916;47.086;15.920;2023-02-22T09:34:25;16.90;;;9.00;;
17595;SDS011;8916;47.086;15.920;2023-02-22T09:36:56;17.08;;;8.95;;
17595;SDS011;8916;47.086;15.920;2023-02-22T09:39:25;18.10;;;8.23;;
17595;SDS011;8916;47.086;15.920;2023-02-22T09:41:57;17.25;;;8.82;;
17595;SDS011;8916;47.086;15.920;2023-02-22T09:44:34;18.80;;;8.80;;
17595;SDS011;8916;47.086;15.920;2023-02-22T09:47:08;17.58;;;8.52;;
17595;SDS011;8916;47.086;15.920;2023-02-22T09:49:49;14.73;;;7.70;;
17595;SDS011;8916;47.086;15.920;2023-02-22T09:52:29;14.00;;;7.65;;
17595;SDS011;8916;47.086;15.920;2023-02-22T09:55:06;17.85;;;8.88;;
17595;SDS011;8916;47.086;15.920;2023-02-22T09:57:44;17.17;;;9.40;;
17595;SDS011;8916;47.086;15.920;2023-02-22T10:00:16;15.32;;;8.10;;
17595;SDS011;8916;47.086;15.920;2023-02-22T10:02:50;16.15;;;8.50;;
17595;SDS011;8916;47.086;15.920;2023-02-22T10:05:36;17.33;;;8.13;;
17595;SDS011;8916;47.086;15.920;2023-02-22T10:08:09;16.17;;;8.20;;
17595;SDS011;8916;47.086;15.920;2023-02-22T10:10:41;14.40;;;8.02;;
17595;SDS011;8916;47.086;15.920;2023-02-22T10:13:17;18.23;;;9.23;;
17595;SDS011;8916;47.086;15.920;2023-02-22T10:15:59;13.75;;;8.43;;
17595;SDS011;8916;47.086;15.920;2023-02-22T10:18:45;21.38;;;9.80;;
17595;SDS011;8916;47.086;15.920;2023-02-22T10:21:34;18.55;;;9.25;;
17595;SDS011;8916;47.086;15.920;2023-02-22T10:24:17;14.95;;;8.43;;
17595;SDS011;8916;47.086;15.920;2023-02-22T10:27:05;15.13;;;8.07;;
17595;SDS011;8916;47.086;15.920;2023-02-22T10:29:41;12.40;;;7.38;;
17595;SDS011;8916;47.086;15.920;2023-02-22T10:32:18;14.25;;;7.00;;
17595;SDS011;8916;47.086;15.920;2023-02-22T10:34:53;11.02;;;6.53;;
17595;SDS011;8916;47.086;15.920;2023-02-22T10:37:25;16.35;;;7.63;;
17595;SDS011;8916;47.086;15.920;2023-02-22T10:39:58;11.30;;;7.00;;
17595;SDS011;8916;47.086;15.920;2023-02-22T10:42:40;11.50;;;6.93;;
17595;SDS011;8916;47.086;15.920;2023-02-22T10:45:17;11.73;;;7.40;;
17595;SDS011;8916;47.086;15.920;2023-02-22T10:47:55;14.02;;;7.18;;
17595;SDS011;8916;47.086;15.920;2023-02-22T10:50:30;12.93;;;8.07;;
17595;SDS011;8916;47.086;15.920;2023-02-22T10:53:01;14.75;;;7.90;;
17595;SDS011;8916;47.086;15.920;2023-02-22T10:55:31;19.70;;;8.45;;
17595;SDS011;8916;47.086;15.920;2023-02-22T10:58:02;17.70;;;8.38;;
17595;SDS011;8916;47.086;15.920;2023-02-22T11:00:35;15.40;;;8.05;;
17595;SDS011;8916;47.086;15.920;2023-02-22T11:03:15;13.88;;;7.75;;
17595;SDS011;8916;47.086;15.920;2023-02-22T11:05:48;14.20;;;7.93;;
17595;SDS011;8916;47.086;15.920;2023-02-22T11:08:23;15.25;;;8.20;;
17595;SDS011;8916;47.086;15.920;2023-02-22T11:10:56;12.73;;;7.50;;
17595;SDS011;8916;47.086;15.920;2023-02-22T11:13:30;17.02;;;7.75;;
17595;SDS011;8916;47.086;15.920;2023-02-22T11:16:16;13.02;;;7.65;;
17595;SDS011;8916;47.086;15.920;2023-02-22T11:18:49;12.35;;;7.22;;
17595;SDS011;8916;47.086;15.920;2023-02-22T11:21:27;14.45;;;7.97;;
17595;SDS011;8916;47.086;15.920;2023-02-22T11:24:01;18.70;;;7.55;;
17595;SDS011;8916;47.086;15.920;2023-02-22T11:26:39;16.45;;;7.95;;
17595;SDS011;8916;47.086;15.920;2023-02-22T11:29:16;13.10;;;7.15;;
17595;SDS011;8916;47.086;15.920;2023-02-22T11:31:50;12.40;;;7.45;;
17595;SDS011;8916;47.086;15.920;2023-02-22T11:34:32;12.82;;;7.63;;
17595;SDS011;8916;47.086;15.920;2023-02-22T11:37:18;12.60;;;6.72;;
17595;SDS011;8916;47.086;15.920;2023-02-22T11:40:03;15.65;;;7.43;;
17595;SDS011;8916;47.086;15.920;2023-02-22T11:42:38;12.13;;;6.32;;
17595;SDS011;8916;47.086;15.920;2023-02-22T11:45:10;13.27;;;6.85;;
17595;SDS011;8916;47.086;15.920;2023-02-22T11:47:47;11.02;;;6.38;;
17595;SDS011;8916;47.086;15.920;2023-02-22T11:50:25;14.18;;;6.10;;
17595;SDS011;8916;47.086;15.920;2023-02-22T11:53:10;11.70;;;6.45;;
17595;SDS011;8916;47.086;15.920;2023-02-22T11:55:57;10.68;;;5.50;;
17595;SDS011;8916;47.086;15.920;2023-02-22T11:58:45;12.60;;;6.13;;
17595;SDS011;8916;47.086;15.920;2023-02-22T12:01:21;10.07;;;6.15;;
17595;SDS011;8916;47.086;15.920;2023-02-22T12:07:35;10.15;;;5.82;;
17595;SDS011;8916;47.086;15.920;2023-02-22T12:10:18;13.20;;;5.97;;
17595;SDS011;8916;47.086;15.920;2023-02-22T12:13:05;10.27;;;5.25;;
17595;SDS011;8916;47.086;15.920;2023-02-22T12:15:50;10.90;;;5.90;;
17595;SDS011;8916;47.086;15.920;2023-02-22T12:18:29;13.23;;;7.53;;
17595;SDS011;8916;47.086;15.920;2023-02-22T12:21:07;11.25;;;6.68;;
17595;SDS011;8916;47.086;15.920;2023-02-22T12:23:46;13.20;;;6.03;;
17595;SDS011;8916;47.086;15.920;2023-02-22T12:26:23;8.48;;;5.20;;
17595;SDS011;8916;47.086;15.920;2023-02-22T12:28:57;11.73;;;5.88;;
17595;SDS011;8916;47.086;15.920;2023-02-22T12:31:34;10.00;;;5.78;;
17595;SDS011;8916;47.086;15.920;2023-02-22T12:34:14;10.05;;;5.40;;
17595;SDS011;8916;47.086;15.920;2023-02-22T12:36:59;10.98;;;5.97;;
17595;SDS011;8916;47.086;15.920;2023-02-22T12:39:48;11.00;;;5.88;;
17595;SDS011;8916;47.086;15.920;2023-02-22T12:42:29;10.68;;;5.85;;
17595;SDS011;8916;47.086;15.920;2023-02-22T12:45:11;10.43;;;6.30;;
17595;SDS011;8916;47.086;15.920;2023-02-22T12:47:50;22.20;;;6.38;;
17595;SDS011;8916;47.086;15.920;2023-02-22T12:50:28;10.23;;;6.05;;
17595;SDS011;8916;47.086;15.920;2023-02-22T12:53:02;13.18;;;6.43;;
17595;SDS011;8916;47.086;15.920;2023-02-22T12:55:44;12.63;;;7.35;;
17595;SDS011;8916;47.086;15.920;2023-02-22T12:58:23;11.02;;;6.38;;
17595;SDS011;8916;47.086;15.920;2023-02-22T13:00:58;11.45;;;6.50;;
17595;SDS011;8916;47.086;15.920;2023-02-22T13:03:41;10.63;;;6.05;;
17595;SDS011;8916;47.086;15.920;2023-02-22T13:06:25;14.77;;;6.82;;
17595;SDS011;8916;47.086;15.920;2023-02-22T13:09:08;14.82;;;6.70;;
17595;SDS011;8916;47.086;15.920;2023-02-22T13:11:59;13.40;;;6.78;;
17595;SDS011;8916;47.086;15.920;2023-02-22T13:14:37;11.68;;;7.00;;
17595;SDS011;8916;47.086;15.920;2023-02-22T13:17:22;10.70;;;6.60;;
17595;SDS011;8916;47.086;15.920;2023-02-22T13:20:03;10.50;;;6.60;;
17595;SDS011;8916;47.086;15.920;2023-02-22T13:22:41;13.68;;;7.03;;
17595;SDS011;8916;47.086;15.920;2023-02-22T13:25:18;13.27;;;6.80;;
17595;SDS011;8916;47.086;15.920;2023-02-22T13:27:56;16.20;;;7.15;;
17595;SDS011;8916;47.086;15.920;2023-02-22T13:30:37;14.45;;;7.15;;
17595;SDS011;8916;47.086;15.920;2023-02-22T13:33:24;11.52;;;7.22;;
17595;SDS011;8916;47.086;15.920;2023-02-22T13:36:20;11.10;;;6.60;;
17595;SDS011;8916;47.086;15.920;2023-02-22T13:39:08;12.10;;;6.75;;
17595;SDS011;8916;47.086;15.920;2023-02-22T13:42:15;12.00;;;7.22;;
17595;SDS011;8916;47.086;15.920;2023-02-22T13:48:37;11.70;;;7.63;;
17595;SDS011;8916;47.086;15.920;2023-02-22T13:51:31;12.70;;;7.55;;
17595;SDS011;8916;47.086;15.920;2023-02-22T13:54:14;15.30;;;7.82;;
17595;SDS011;8916;47.086;15.920;2023-02-22T13:56:52;13.25;;;8.38;;
17595;SDS011;8916;47.086;15.920;2023-02-22T13:59:25;12.50;;;7.63;;
17595;SDS011;8916;47.086;15.920;2023-02-22T14:04:35;11.35;;;7.30;;
17595;SDS011;8916;47.086;15.920;2023-02-22T14:10:45;33.22;;;11.05;;
17595;SDS011;8916;47.086;15.920;2023-02-22T14:13:17;13.50;;;8.07;;
17595;SDS011;8916;47.086;15.920;2023-02-22T14:19:01;14.13;;;8.63;;
17595;SDS011;8916;47.086;15.920;2023-02-22T14:21:34;13.32;;;8.35;;
17595;SDS011;8916;47.086;15.920;2023-02-22T14:24:14;24.90;;;9.68;;
17595;SDS011;8916;47.086;15.920;2023-02-22T14:26:52;11.85;;;7.68;;
17595;SDS011;8916;47.086;15.920;2023-02-22T14:29:28;16.67;;;8.55;;
17595;SDS011;8916;47.086;15.920;2023-02-22T14:32:00;12.75;;;8.55;;
17595;SDS011;8916;47.086;15.920;2023-02-22T14:34:42;23.48;;;9.05;;
17595;SDS011;8916;47.086;15.920;2023-02-22T14:37:19;15.13;;;8.20;;
17595;SDS011;8916;47.086;15.920;2023-02-22T14:39:53;14.88;;;8.55;;
17595;SDS011;8916;47.086;15.920;2023-02-22T14:42:40;13.90;;;8.50;;
17595;SDS011;8916;47.086;15.920;2023-02-22T14:45:16;11.77;;;7.82;;
17595;SDS011;8916;47.086;15.920;2023-02-22T14:47:54;14.68;;;9.63;;
17595;SDS011;8916;47.086;15.920;2023-02-22T14:50:36;14.40;;;8.95;;
17595;SDS011;8916;47.086;15.920;2023-02-22T14:53:18;15.18;;;8.98;;
17595;SDS011;8916;47.086;15.920;2023-02-22T14:55:59;16.92;;;9.90;;
17595;SDS011;8916;47.086;15.920;2023-02-22T14:58:35;12.10;;;8.70;;
17595;SDS011;8916;47.086;15.920;2023-02-22T15:01:19;14.02;;;9.05;;
17595;SDS011;8916;47.086;15.920;2023-02-22T15:04:16;13.55;;;8.70;;
17595;SDS011;8916;47.086;15.920;2023-02-22T15:06:50;12.82;;;9.00;;
17595;SDS011;8916;47.086;15.920;2023-02-22T15:09:21;16.15;;;8.73;;
17595;SDS011;8916;47.086;15.920;2023-02-22T15:12:09;15.43;;;9.55;;
17595;SDS011;8916;47.086;15.920;2023-02-22T15:14:44;15.68;;;8.68;;
17595;SDS011;8916;47.086;15.920;2023-02-22T15:17:58;19.88;;;10.70;;
17595;SDS011;8916;47.086;15.920;2023-02-22T15:20:33;16.65;;;9.90;;
17595;SDS011;8916;47.086;15.920;2023-02-22T15:23:06;14.95;;;9.60;;
17595;SDS011;8916;47.086;15.920;2023-02-22T15:25:36;15.80;;;10.23;;
17595;SDS011;8916;47.086;15.920;2023-02-22T15:28:10;18.33;;;10.55;;
17595;SDS011;8916;47.086;15.920;2023-02-22T15:30:42;15.52;;;10.20;;
17595;SDS011;8916;47.086;15.920;2023-02-22T15:33:14;17.42;;;10.20;;
17595;SDS011;8916;47.086;15.920;2023-02-22T15:35:54;20.88;;;10.73;;
17595;SDS011;8916;47.086;15.920;2023-02-22T15:38:28;19.90;;;11.32;;